地図

経路データ

SID SEASON NUMBER BASIN SUBBASIN NAME ISO_TIME NATURE LAT LON WMO_WIND WMO_PRES WMO_AGENCY TRACK_TYPE DIST2LAND LANDFALL IFLAG USA_AGENCY USA_ATCF_ID USA_LAT USA_LON USA_RECORD USA_STATUS USA_WIND USA_PRES USA_SSHS USA_R34_NE USA_R34_SE USA_R34_SW USA_R34_NW USA_R50_NE USA_R50_SE USA_R50_SW USA_R50_NW USA_R64_NE USA_R64_SE USA_R64_SW USA_R64_NW USA_POCI USA_ROCI USA_RMW USA_EYE TOKYO_LAT TOKYO_LON TOKYO_GRADE TOKYO_WIND TOKYO_PRES TOKYO_R50_DIR TOKYO_R50_LONG TOKYO_R50_SHORT TOKYO_R30_DIR TOKYO_R30_LONG TOKYO_R30_SHORT TOKYO_LAND CMA_LAT CMA_LON CMA_CAT CMA_WIND CMA_PRES HKO_LAT HKO_LON HKO_CAT HKO_WIND HKO_PRES NEWDELHI_LAT NEWDELHI_LON NEWDELHI_GRADE NEWDELHI_WIND NEWDELHI_PRES NEWDELHI_CI NEWDELHI_DP NEWDELHI_POCI REUNION_LAT REUNION_LON REUNION_TYPE REUNION_WIND REUNION_PRES REUNION_TNUM REUNION_CI REUNION_RMW REUNION_R34_NE REUNION_R34_SE REUNION_R34_SW REUNION_R34_NW REUNION_R50_NE REUNION_R50_SE REUNION_R50_SW REUNION_R50_NW REUNION_R64_NE REUNION_R64_SE REUNION_R64_SW REUNION_R64_NW BOM_LAT BOM_LON BOM_TYPE BOM_WIND BOM_PRES BOM_TNUM BOM_CI BOM_RMW BOM_R34_NE BOM_R34_SE BOM_R34_SW BOM_R34_NW BOM_R50_NE BOM_R50_SE BOM_R50_SW BOM_R50_NW BOM_R64_NE BOM_R64_SE BOM_R64_SW BOM_R64_NW BOM_ROCI BOM_POCI BOM_EYE BOM_POS_METHOD BOM_PRES_METHOD NADI_LAT NADI_LON NADI_CAT NADI_WIND NADI_PRES WELLINGTON_LAT WELLINGTON_LON WELLINGTON_WIND WELLINGTON_PRES DS824_LAT DS824_LON DS824_STAGE DS824_WIND DS824_PRES TD9636_LAT TD9636_LON TD9636_STAGE TD9636_WIND TD9636_PRES TD9635_LAT TD9635_LON TD9635_WIND TD9635_PRES TD9635_ROCI NEUMANN_LAT NEUMANN_LON NEUMANN_CLASS NEUMANN_WIND NEUMANN_PRES MLC_LAT MLC_LON MLC_CLASS MLC_WIND MLC_PRES USA_GUST BOM_GUST BOM_GUST_PER REUNION_GUST REUNION_GUST_PER USA_SEAHGT USA_SEARAD_NE USA_SEARAD_SE USA_SEARAD_SW USA_SEARAD_NW STORM_SPEED STORM_DIR
1987303N06088 1987 91 NI BB NOT_NAMED 1987-10-30 00:00:00 NR 6.20000 87.8000 main 658 652 O_________O___ jtwc_io IO051987 6.20000 87.8000 20 -1 6.20000 87.8000 1 20 10 3
1987303N06088 1987 91 NI BB NOT_NAMED 1987-10-30 03:00:00 NR 6.68410 87.8088 main 652 651 P_________P___ IO051987 6.70250 87.7751 22 -1 6.66570 87.8424 1 21 10 2
1987303N06088 1987 91 NI BB NOT_NAMED 1987-10-30 06:00:00 NR 7.17256 87.8440 main 652 652 O_________P___ jtwc_io IO051987 7.20000 87.8000 25 -1 7.14511 87.8879 1 22 10 7
1987303N06088 1987 91 NI BB NOT_NAMED 1987-10-30 09:00:00 NR 7.67223 87.9197 main 666 666 P_________P___ IO051987 7.69251 87.8999 25 -1 7.65196 87.9394 1 23 10 8
1987303N06088 1987 91 NI BB NOT_NAMED 1987-10-30 12:00:00 NR 8.20000 88.0000 main 686 686 O_________O___ jtwc_io IO051987 8.20000 88.0000 25 -1 8.20000 88.0000 1 25 11 6
1987303N06088 1987 91 NI BB NOT_NAMED 1987-10-30 15:00:00 NR 8.75855 88.0408 main 696 696 P_________P___ IO051987 8.72001 88.0151 27 -1 8.79710 88.0665 1 26 12 3
1987303N06088 1987 91 NI BB NOT_NAMED 1987-10-30 18:00:00 NR 9.36367 88.0557 main 722 722 O_________P___ jtwc_io IO051987 9.30000 88.0000 30 -1 9.42734 88.1114 1 27 13 1
1987303N06088 1987 91 NI BB NOT_NAMED 1987-10-30 21:00:00 NR 10.0307 88.0652 main 743 743 P_________P___ IO051987 9.99249 88.0298 30 -1 10.0689 88.1007 1 28 13 357
1987303N06088 1987 91 NI BB NOT_NAMED 1987-10-31 00:00:00 NR 10.7000 88.0000 main 764 764 O_________O___ jtwc_io IO051987 10.7000 88.0000 30 -1 10.7000 88.0000 1 30 13 350
1987303N06088 1987 91 NI BB NOT_NAMED 1987-10-31 03:00:00 NR 11.3343 87.8285 main 773 772 P_________P___ IO051987 11.3224 87.8674 30 -1 11.3461 87.7896 1 31 13 340
1987303N06088 1987 91 NI BB NOT_NAMED 1987-10-31 06:00:00 NR 11.9349 87.5430 main 768 699 O_________P___ jtwc_io IO051987 11.9000 87.6000 30 -1 11.9698 87.4861 1 32 14 331
1987303N06088 1987 91 NI BB NOT_NAMED 1987-10-31 09:00:00 NR 12.5143 87.1548 main 699 621 P_________P___ IO051987 12.4950 87.1952 32 -1 12.5336 87.1145 1 33 14 322
1987303N06088 1987 91 NI BB NOT_NAMED 1987-10-31 12:00:00 NR 13.0000 86.7000 main 621 566 O_________O___ jtwc_io IO051987 13.0000 86.7000 35 0 13.0000 86.7000 2 35 12 313
1987303N06088 1987 91 NI BB NOT_NAMED 1987-10-31 15:00:00 NR 13.3612 86.2289 main 551 504 P_________P___ IO051987 13.3600 86.1924 37 0 13.3624 86.2655 2 37 11 303
1987303N06088 1987 91 NI BB NOT_NAMED 1987-10-31 18:00:00 NR 13.6114 85.7500 main 496 449 O_________P___ jtwc_io IO051987 13.6000 85.7000 40 0 13.6228 85.7999 2 40 10 296
1987303N06088 1987 91 NI BB NOT_NAMED 1987-10-31 21:00:00 NR 13.7958 85.3059 main 449 411 P_________P___ IO051987 13.7949 85.2774 42 0 13.7968 85.3344 2 42 9 289
1987303N06088 1987 91 NI BB NOT_NAMED 1987-11-01 00:00:00 NR 13.9000 84.9000 main 411 390 O_________O___ jtwc_io IO051987 13.9000 84.9000 45 0 13.9000 84.9000 2 45 8 281
1987303N06088 1987 91 NI BB NOT_NAMED 1987-11-01 03:00:00 NR 13.9433 84.5408 main 383 364 P_________P___ IO051987 13.9224 84.5349 47 0 13.9642 84.5466 2 47 7 273
1987303N06088 1987 91 NI BB NOT_NAMED 1987-11-01 06:00:00 NR 13.9334 84.2134 main 364 347 O_________P___ jtwc_io IO051987 13.9000 84.2000 50 0 13.9669 84.2268 2 50 6 268
1987303N06088 1987 91 NI BB NOT_NAMED 1987-11-01 09:00:00 NR 13.9180 83.9131 main 347 332 P_________P___ IO051987 13.8999 83.9075 52 0 13.9361 83.9186 2 52 6 267
1987303N06088 1987 91 NI BB NOT_NAMED 1987-11-01 12:00:00 NR 13.9000 83.6000 main 332 312 O_________O___ jtwc_io IO051987 13.9000 83.6000 55 0 13.9000 83.6000 2 55 7 268
1987303N06088 1987 91 NI BB NOT_NAMED 1987-11-01 15:00:00 NR 13.8919 83.2152 main 312 270 P_________P___ IO051987 13.9000 83.2075 55 0 13.8838 83.2230 2 55 8 269
1987303N06088 1987 91 NI BB NOT_NAMED 1987-11-01 18:00:00 NR 13.8851 82.8174 main 270 237 O_________P___ jtwc_io IO051987 13.9000 82.8000 55 0 13.8702 82.8348 2 55 7 269
1987303N06088 1987 91 NI BB NOT_NAMED 1987-11-01 21:00:00 NR 13.8782 82.4446 main 227 194 P_________P___ IO051987 13.8849 82.4349 55 0 13.8714 82.4542 2 55 7 271
1987303N06088 1987 91 NI BB NOT_NAMED 1987-11-02 00:00:00 NR 13.9000 82.1000 main 194 163 O_________O___ jtwc_io IO051987 13.9000 82.1000 55 0 13.9000 82.1000 2 55 6 279
1987303N06088 1987 91 NI BB NOT_NAMED 1987-11-02 03:00:00 NR 13.9760 81.7887 main 163 133 P_________P___ IO051987 13.9850 81.7850 55 0 13.9669 81.7923 2 55 6 287
1987303N06088 1987 91 NI BB NOT_NAMED 1987-11-02 06:00:00 NR 14.0811 81.5063 main 133 113 O_________P___ jtwc_io IO051987 14.1000 81.5000 55 0 14.0622 81.5126 2 55 6 292
1987303N06088 1987 91 NI BB NOT_NAMED 1987-11-02 09:00:00 NR 14.1882 81.2433 main 106 92 P_________P___ IO051987 14.2000 81.2350 55 0 14.1764 81.2516 2 55 5 294
1987303N06088 1987 91 NI BB NOT_NAMED 1987-11-02 12:00:00 NR 14.3000 81.0000 main 92 68 O_________O___ jtwc_io IO051987 14.3000 81.0000 55 0 14.3000 81.0000 2 55 5 295
1987303N06088 1987 91 NI BB NOT_NAMED 1987-11-02 15:00:00 NR 14.3913 80.7973 main 68 44 P_________P___ IO051987 14.3924 80.8074 55 0 14.3901 80.7871 2 51 4 296
1987303N06088 1987 91 NI BB NOT_NAMED 1987-11-02 18:00:00 NR 14.4957 80.5872 main 44 10 O_________P___ jtwc_io IO051987 14.5000 80.6000 55 0 14.4915 80.5744 2 47 5 297
1987303N06088 1987 91 NI BB NOT_NAMED 1987-11-02 21:00:00 NR 14.6248 80.3309 main 10 0 P_________P___ IO051987 14.6274 80.3374 47 0 14.6222 80.3245 2 43 6 298
1987303N06088 1987 91 NI BB NOT_NAMED 1987-11-03 00:00:00 NR 14.8000 80.0000 main 0 0 O_________O___ jtwc_io IO051987 14.8000 80.0000 40 0 14.8000 80.0000 2 40 8 299
1987303N06088 1987 91 NI BB NOT_NAMED 1987-11-03 03:00:00 NR 15.0335 79.5769 main 0 0 P_________P___ IO051987 15.0328 79.5753 32 -1 15.0342 79.5785 2 32 10 300
1987303N06088 1987 91 NI BB NOT_NAMED 1987-11-03 06:00:00 NR 15.3000 79.1000 main 0 O_________O___ jtwc_io IO051987 15.3000 79.1000 25 -1 15.3000 79.1000 1 25 11 300

IBTrACS Databaseについて

本データベースは、米国NOAAが公開する1842年以降の世界の熱帯低気圧のベストトラックデータアーカイブInternational Best Track Archive for Climate Stewardship (IBTrACS)を、ウェブで閲覧しやすい形式に変換したものです。

最終更新日:2021-12-06